N511EM TJPS-MDPC
Flight info
| Callsign | N511EM |
|---|---|
| Flight time | 0h 39m |
| Altitude | 8000 |
| Route | DCT MAZ B892 PNA DCT |
| Aircraft | K100/L-SBDGRY/S |
Departure
| Time | 2026-04-17 00:40 |
|---|---|
| Airport | Mercedita International Airport (TJPS) |
Arrival
| Time | 2026-04-17 01:19 |
|---|---|
| Airport | Punta Cana International Airport (MDPC) |
| Time | Latitude | Longitude | Altitude | Speed | Heading |
|---|---|---|---|---|---|
| 2026-04-17 00:31 | 18.00912 | -66.55957 | 11 ft | 0 kts | 13° |
| 2026-04-17 00:36 | 18.00916 | -66.55956 | 9 ft | 3 kts | 8° |
| 2026-04-17 00:36 | 18.00936 | -66.55986 | 11 ft | 8 kts | 285° |
| 2026-04-17 00:37 | 18.00905 | -66.56030 | 13 ft | 10 kts | 199° |
| 2026-04-17 00:37 | 18.00886 | -66.56096 | 13 ft | 13 kts | 289° |
| 2026-04-17 00:37 | 18.00918 | -66.56195 | 14 ft | 14 kts | 287° |
| 2026-04-17 00:37 | 18.00951 | -66.56300 | 32 ft | 16 kts | 288° |
| 2026-04-17 00:38 | 18.00986 | -66.56419 | 33 ft | 18 kts | 287° |
| 2026-04-17 00:38 | 18.01025 | -66.56549 | 34 ft | 19 kts | 289° |
| 2026-04-17 00:38 | 18.01064 | -66.56670 | 34 ft | 17 kts | 287° |
| 2026-04-17 00:38 | 18.01102 | -66.56794 | 35 ft | 13 kts | 286° |
| 2026-04-17 00:39 | 18.01047 | -66.56849 | 36 ft | 13 kts | 199° |
| 2026-04-17 00:39 | 18.00986 | -66.56798 | 36 ft | 22 kts | 108° |
| 2026-04-17 00:39 | 18.00879 | -66.56443 | 34 ft | 81 kts | 107° |
| 2026-04-17 00:39 | 18.00815 | -66.55790 | 223 ft | 99 kts | 83° |
| 2026-04-17 00:40 | 18.00913 | -66.54995 | 474 ft | 111 kts | 80° |
| 2026-04-17 00:40 | 18.01292 | -66.54354 | 863 ft | 113 kts | 25° |
| 2026-04-17 00:40 | 18.02091 | -66.54217 | 1078 ft | 126 kts | 1° |
| 2026-04-17 00:40 | 18.02857 | -66.54520 | 1481 ft | 129 kts | 302° |
| 2026-04-17 00:41 | 18.02996 | -66.55464 | 1764 ft | 134 kts | 261° |
| 2026-04-17 00:41 | 18.02822 | -66.56436 | 2081 ft | 134 kts | 256° |
| 2026-04-17 00:41 | 18.02613 | -66.57367 | 2490 ft | 130 kts | 254° |
| 2026-04-17 00:41 | 18.02404 | -66.58294 | 2864 ft | 132 kts | 256° |
| 2026-04-17 00:42 | 18.02195 | -66.59236 | 3215 ft | 131 kts | 254° |
| 2026-04-17 00:42 | 18.01987 | -66.60170 | 3570 ft | 132 kts | 256° |
| 2026-04-17 00:42 | 18.02099 | -66.61120 | 3918 ft | 135 kts | 296° |
| 2026-04-17 00:42 | 18.02464 | -66.62039 | 4261 ft | 137 kts | 294° |
| 2026-04-17 00:43 | 18.02840 | -66.62965 | 4630 ft | 138 kts | 304° |
| 2026-04-17 00:43 | 18.03581 | -66.63553 | 4960 ft | 135 kts | 334° |
| 2026-04-17 00:43 | 18.04191 | -66.64314 | 5314 ft | 140 kts | 297° |
| 2026-04-17 00:43 | 18.04585 | -66.65232 | 5685 ft | 140 kts | 297° |
| 2026-04-17 00:44 | 18.04993 | -66.66159 | 6080 ft | 140 kts | 296° |
| 2026-04-17 00:44 | 18.05390 | -66.67091 | 6459 ft | 139 kts | 296° |
| 2026-04-17 00:44 | 18.05786 | -66.68023 | 6820 ft | 140 kts | 296° |
| 2026-04-17 00:44 | 18.06182 | -66.68958 | 7155 ft | 140 kts | 296° |
| 2026-04-17 00:45 | 18.06578 | -66.69894 | 7490 ft | 140 kts | 296° |
| 2026-04-17 00:45 | 18.06974 | -66.70829 | 7840 ft | 140 kts | 296° |
| 2026-04-17 00:45 | 18.07391 | -66.71800 | 7991 ft | 157 kts | 296° |
| 2026-04-17 00:45 | 18.07869 | -66.72910 | 7996 ft | 173 kts | 295° |
| 2026-04-17 00:46 | 18.08367 | -66.74098 | 7996 ft | 181 kts | 295° |
| 2026-04-17 00:46 | 18.08879 | -66.75318 | 7997 ft | 184 kts | 295° |
| 2026-04-17 00:46 | 18.09403 | -66.76560 | 7998 ft | 187 kts | 295° |
| 2026-04-17 00:46 | 18.09932 | -66.77812 | 8000 ft | 188 kts | 295° |
| 2026-04-17 00:47 | 18.10463 | -66.79074 | 8001 ft | 189 kts | 295° |
| 2026-04-17 00:47 | 18.10998 | -66.80341 | 8003 ft | 190 kts | 295° |
| 2026-04-17 00:47 | 18.11535 | -66.81612 | 7996 ft | 190 kts | 294° |
| 2026-04-17 00:47 | 18.12065 | -66.82875 | 8000 ft | 188 kts | 295° |
| 2026-04-17 00:48 | 18.12593 | -66.84120 | 8002 ft | 189 kts | 294° |
| 2026-04-17 00:48 | 18.13123 | -66.85380 | 8005 ft | 189 kts | 295° |
| 2026-04-17 00:48 | 18.13658 | -66.86642 | 8006 ft | 189 kts | 295° |
| 2026-04-17 00:48 | 18.14195 | -66.87912 | 8008 ft | 190 kts | 294° |
| 2026-04-17 00:49 | 18.14730 | -66.89182 | 8010 ft | 190 kts | 295° |
| 2026-04-17 00:49 | 18.15267 | -66.90452 | 8005 ft | 190 kts | 295° |
| 2026-04-17 00:49 | 18.15800 | -66.91719 | 8004 ft | 189 kts | 295° |
| 2026-04-17 00:49 | 18.16330 | -66.92983 | 8002 ft | 188 kts | 295° |
| 2026-04-17 00:50 | 18.16861 | -66.94236 | 8000 ft | 187 kts | 295° |
| 2026-04-17 00:50 | 18.17392 | -66.95487 | 8002 ft | 188 kts | 295° |
| 2026-04-17 00:50 | 18.17922 | -66.96745 | 8002 ft | 189 kts | 295° |
| 2026-04-17 00:50 | 18.18453 | -66.98005 | 8002 ft | 188 kts | 295° |
| 2026-04-17 00:51 | 18.18983 | -66.99265 | 8004 ft | 188 kts | 295° |
| 2026-04-17 00:51 | 18.19513 | -67.00523 | 8004 ft | 188 kts | 295° |
| 2026-04-17 00:51 | 18.20041 | -67.01778 | 8005 ft | 188 kts | 295° |
| 2026-04-17 00:51 | 18.20571 | -67.03035 | 7997 ft | 188 kts | 295° |
| 2026-04-17 00:52 | 18.21100 | -67.04292 | 7995 ft | 188 kts | 295° |
| 2026-04-17 00:52 | 18.21628 | -67.05549 | 8001 ft | 188 kts | 295° |
| 2026-04-17 00:52 | 18.22156 | -67.06802 | 8000 ft | 187 kts | 295° |
| 2026-04-17 00:52 | 18.22683 | -67.08057 | 7999 ft | 188 kts | 295° |
| 2026-04-17 00:53 | 18.23211 | -67.09313 | 7998 ft | 187 kts | 295° |
| 2026-04-17 00:53 | 18.23738 | -67.10565 | 7996 ft | 187 kts | 295° |
| 2026-04-17 00:53 | 18.24265 | -67.11820 | 7997 ft | 187 kts | 295° |
| 2026-04-17 00:53 | 18.24782 | -67.13052 | 7999 ft | 187 kts | 295° |
| 2026-04-17 00:54 | 18.25309 | -67.14302 | 8000 ft | 187 kts | 295° |
| 2026-04-17 00:54 | 18.25784 | -67.15574 | 7993 ft | 187 kts | 286° |
| 2026-04-17 00:54 | 18.26120 | -67.16897 | 7993 ft | 187 kts | 285° |
| 2026-04-17 00:54 | 18.26464 | -67.18216 | 7994 ft | 187 kts | 286° |
| 2026-04-17 00:55 | 18.26816 | -67.19539 | 7992 ft | 187 kts | 286° |
| 2026-04-17 00:55 | 18.27167 | -67.20861 | 7992 ft | 187 kts | 286° |
| 2026-04-17 00:55 | 18.27516 | -67.22182 | 7995 ft | 187 kts | 287° |
| 2026-04-17 00:55 | 18.27869 | -67.23503 | 7995 ft | 188 kts | 287° |
| 2026-04-17 00:56 | 18.28219 | -67.24826 | 8009 ft | 188 kts | 286° |
| 2026-04-17 00:56 | 18.28570 | -67.26151 | 8008 ft | 188 kts | 286° |
| 2026-04-17 00:56 | 18.28919 | -67.27473 | 8008 ft | 188 kts | 286° |
| 2026-04-17 00:56 | 18.29268 | -67.28795 | 8008 ft | 188 kts | 286° |
| 2026-04-17 00:57 | 18.29617 | -67.30118 | 8008 ft | 188 kts | 286° |
| 2026-04-17 00:57 | 18.29968 | -67.31445 | 8007 ft | 188 kts | 286° |
| 2026-04-17 00:57 | 18.30318 | -67.32772 | 8006 ft | 188 kts | 286° |
| 2026-04-17 00:57 | 18.30664 | -67.34079 | 8006 ft | 188 kts | 286° |
| 2026-04-17 00:58 | 18.30899 | -67.34974 | 8005 ft | 188 kts | 286° |
| 2026-04-17 00:58 | 18.31362 | -67.36730 | 8004 ft | 188 kts | 286° |
| 2026-04-17 00:58 | 18.31712 | -67.38057 | 8004 ft | 188 kts | 286° |
| 2026-04-17 00:58 | 18.31944 | -67.38936 | 8003 ft | 188 kts | 286° |
| 2026-04-17 00:59 | 18.32294 | -67.40263 | 8001 ft | 188 kts | 287° |
| 2026-04-17 00:59 | 18.32643 | -67.41589 | 8000 ft | 188 kts | 286° |
| 2026-04-17 00:59 | 18.32993 | -67.42916 | 7999 ft | 188 kts | 286° |
| 2026-04-17 00:59 | 18.33343 | -67.44245 | 7998 ft | 188 kts | 286° |
| 2026-04-17 01:00 | 18.33692 | -67.45572 | 7999 ft | 188 kts | 286° |
| 2026-04-17 01:00 | 18.34043 | -67.46904 | 7999 ft | 188 kts | 286° |
| 2026-04-17 01:00 | 18.34393 | -67.48236 | 7998 ft | 189 kts | 286° |
| 2026-04-17 01:00 | 18.34744 | -67.49569 | 7998 ft | 189 kts | 286° |
| 2026-04-17 01:01 | 18.35093 | -67.50899 | 7999 ft | 189 kts | 286° |
| 2026-04-17 01:01 | 18.35443 | -67.52231 | 7999 ft | 189 kts | 286° |
| 2026-04-17 01:01 | 18.35793 | -67.53563 | 7999 ft | 189 kts | 287° |
| 2026-04-17 01:01 | 18.36143 | -67.54894 | 7999 ft | 189 kts | 287° |
| 2026-04-17 01:02 | 18.36493 | -67.56226 | 7999 ft | 189 kts | 286° |
| 2026-04-17 01:02 | 18.36841 | -67.57556 | 7999 ft | 189 kts | 286° |
| 2026-04-17 01:02 | 18.37187 | -67.58872 | 7999 ft | 189 kts | 287° |
| 2026-04-17 01:02 | 18.37538 | -67.60209 | 7999 ft | 189 kts | 286° |
| 2026-04-17 01:03 | 18.37888 | -67.61543 | 7999 ft | 189 kts | 286° |
| 2026-04-17 01:03 | 18.38237 | -67.62874 | 7999 ft | 189 kts | 286° |
| 2026-04-17 01:03 | 18.38587 | -67.64211 | 7999 ft | 189 kts | 286° |
| 2026-04-17 01:03 | 18.38937 | -67.65546 | 7999 ft | 189 kts | 286° |
| 2026-04-17 01:04 | 18.39288 | -67.66885 | 7999 ft | 189 kts | 286° |
| 2026-04-17 01:04 | 18.39637 | -67.68221 | 7999 ft | 189 kts | 286° |
| 2026-04-17 01:04 | 18.39987 | -67.69556 | 7999 ft | 189 kts | 286° |
| 2026-04-17 01:04 | 18.40335 | -67.70889 | 7998 ft | 189 kts | 286° |
| 2026-04-17 01:05 | 18.40684 | -67.72224 | 7996 ft | 189 kts | 286° |
| 2026-04-17 01:05 | 18.41034 | -67.73559 | 7996 ft | 189 kts | 286° |
| 2026-04-17 01:05 | 18.41381 | -67.74889 | 7997 ft | 188 kts | 286° |
| 2026-04-17 01:05 | 18.41729 | -67.76220 | 7997 ft | 188 kts | 286° |
| 2026-04-17 01:06 | 18.42077 | -67.77552 | 7998 ft | 188 kts | 286° |
| 2026-04-17 01:06 | 18.42420 | -67.78863 | 7999 ft | 188 kts | 286° |
| 2026-04-17 01:06 | 18.42767 | -67.80193 | 7999 ft | 188 kts | 286° |
| 2026-04-17 01:06 | 18.43114 | -67.81525 | 7998 ft | 188 kts | 286° |
| 2026-04-17 01:07 | 18.43462 | -67.82855 | 7997 ft | 188 kts | 286° |
| 2026-04-17 01:07 | 18.43809 | -67.84186 | 7997 ft | 189 kts | 286° |
| 2026-04-17 01:07 | 18.44157 | -67.85519 | 7995 ft | 189 kts | 286° |
| 2026-04-17 01:07 | 18.44505 | -67.86851 | 7994 ft | 188 kts | 286° |
| 2026-04-17 01:08 | 18.44851 | -67.88183 | 7995 ft | 188 kts | 286° |
| 2026-04-17 01:08 | 18.45194 | -67.89516 | 7995 ft | 189 kts | 286° |
| 2026-04-17 01:08 | 18.45543 | -67.90855 | 7994 ft | 189 kts | 286° |
| 2026-04-17 01:08 | 18.45891 | -67.92189 | 7994 ft | 189 kts | 286° |
| 2026-04-17 01:09 | 18.46239 | -67.93524 | 7995 ft | 189 kts | 287° |
| 2026-04-17 01:09 | 18.46591 | -67.94857 | 7995 ft | 188 kts | 287° |
| 2026-04-17 01:09 | 18.46937 | -67.96183 | 7995 ft | 188 kts | 286° |
| 2026-04-17 01:09 | 18.47276 | -67.97492 | 7998 ft | 188 kts | 286° |
| 2026-04-17 01:10 | 18.47623 | -67.98825 | 7992 ft | 188 kts | 286° |
| 2026-04-17 01:10 | 18.47967 | -68.00150 | 7992 ft | 188 kts | 286° |
| 2026-04-17 01:10 | 18.48297 | -68.01480 | 7994 ft | 188 kts | 285° |
| 2026-04-17 01:10 | 18.48620 | -68.02811 | 7992 ft | 187 kts | 285° |
| 2026-04-17 01:11 | 18.48946 | -68.04140 | 7995 ft | 187 kts | 285° |
| 2026-04-17 01:11 | 18.49271 | -68.05460 | 7993 ft | 183 kts | 285° |
| 2026-04-17 01:11 | 18.49588 | -68.06742 | 7830 ft | 181 kts | 285° |
| 2026-04-17 01:11 | 18.49904 | -68.08028 | 7598 ft | 182 kts | 285° |
| 2026-04-17 01:12 | 18.50225 | -68.09332 | 7374 ft | 187 kts | 285° |
| 2026-04-17 01:12 | 18.50580 | -68.10662 | 7158 ft | 189 kts | 285° |
| 2026-04-17 01:12 | 18.50886 | -68.12012 | 6898 ft | 189 kts | 283° |
| 2026-04-17 01:12 | 18.51194 | -68.13342 | 6657 ft | 185 kts | 285° |
| 2026-04-17 01:13 | 18.51519 | -68.14653 | 6405 ft | 185 kts | 285° |
| 2026-04-17 01:13 | 18.51847 | -68.15959 | 6081 ft | 183 kts | 285° |
| 2026-04-17 01:13 | 18.52167 | -68.17256 | 5758 ft | 183 kts | 285° |
| 2026-04-17 01:13 | 18.52486 | -68.18552 | 5439 ft | 183 kts | 285° |
| 2026-04-17 01:14 | 18.52805 | -68.19852 | 5126 ft | 183 kts | 285° |
| 2026-04-17 01:14 | 18.53123 | -68.21146 | 4813 ft | 182 kts | 285° |
| 2026-04-17 01:14 | 18.53439 | -68.22434 | 4490 ft | 181 kts | 286° |
| 2026-04-17 01:14 | 18.53705 | -68.23731 | 4173 ft | 181 kts | 276° |
| 2026-04-17 01:15 | 18.53783 | -68.25054 | 3857 ft | 180 kts | 273° |
| 2026-04-17 01:15 | 18.53853 | -68.26367 | 3545 ft | 180 kts | 273° |
| 2026-04-17 01:15 | 18.53914 | -68.27683 | 3230 ft | 179 kts | 273° |
| 2026-04-17 01:15 | 18.53969 | -68.28994 | 2912 ft | 179 kts | 272° |
| 2026-04-17 01:16 | 18.54029 | -68.30312 | 2604 ft | 181 kts | 273° |
| 2026-04-17 01:16 | 18.54092 | -68.31635 | 2284 ft | 180 kts | 274° |
| 2026-04-17 01:16 | 18.54147 | -68.32955 | 1966 ft | 180 kts | 273° |
| 2026-04-17 01:16 | 18.54208 | -68.34258 | 1640 ft | 173 kts | 273° |
| 2026-04-17 01:17 | 18.54253 | -68.35467 | 1405 ft | 162 kts | 271° |
| 2026-04-17 01:17 | 18.54268 | -68.36618 | 1238 ft | 153 kts | 271° |
| 2026-04-17 01:17 | 18.54278 | -68.37736 | 1100 ft | 149 kts | 270° |
| 2026-04-17 01:17 | 18.54284 | -68.38773 | 988 ft | 137 kts | 277° |
| 2026-04-17 01:18 | 18.54631 | -68.39654 | 993 ft | 128 kts | 317° |
| 2026-04-17 01:18 | 18.55358 | -68.40048 | 1000 ft | 114 kts | 1° |
| 2026-04-17 01:18 | 18.56094 | -68.39847 | 821 ft | 112 kts | 34° |
| 2026-04-17 01:18 | 18.56512 | -68.39217 | 660 ft | 110 kts | 82° |
| 2026-04-17 01:19 | 18.56574 | -68.38379 | 345 ft | 107 kts | 85° |
| 2026-04-17 01:19 | 18.56620 | -68.37735 | 95 ft | 70 kts | 86° |
| 2026-04-17 01:19 | 18.56670 | -68.37311 | 50 ft | 47 kts | 89° |
| 2026-04-17 01:19 | 18.56679 | -68.37003 | 49 ft | 39 kts | 85° |
| 2026-04-17 01:20 | 18.56685 | -68.36774 | 49 ft | 21 kts | 125° |
| 2026-04-17 01:20 | 18.56564 | -68.36751 | 47 ft | 15 kts | 162° |
| 2026-04-17 01:20 | 18.56532 | -68.36653 | 47 ft | 16 kts | 84° |
| 2026-04-17 01:20 | 18.56541 | -68.36533 | 47 ft | 16 kts | 82° |
| 2026-04-17 01:21 | 18.56534 | -68.36414 | 47 ft | 17 kts | 129° |
| 2026-04-17 01:21 | 18.56467 | -68.36331 | 47 ft | 15 kts | 83° |
| 2026-04-17 01:21 | 18.56477 | -68.36212 | 47 ft | 17 kts | 83° |
| 2026-04-17 01:21 | 18.56489 | -68.36081 | 47 ft | 18 kts | 86° |
| 2026-04-17 01:22 | 18.56501 | -68.35941 | 47 ft | 20 kts | 84° |
| 2026-04-17 01:22 | 18.56510 | -68.35805 | 47 ft | 13 kts | 102° |
| 2026-04-17 01:22 | 18.56443 | -68.35774 | 47 ft | 11 kts | 109° |
| 2026-04-17 01:22 | 18.56434 | -68.35729 | 47 ft | 0 kts | 269° |